• Join FlightAware (Why Join?)
  • Login
  • US Flag 
11:10AM EDT


 

Airport Tracker/Info


-or-


 

Live Flight TrackerFlight Track Log ✈ SWA2093 ✈ 09-Aug-2013 ✈ KMCI - KPHX

Flight Track Log - Related Links

Times and Time Zones

All times are in EDT time to prevent confusion due to time zone crossing. See the SWA2093 flight status page for this flight to view local times or setup timezone preferences in your user account.

Time Position Orientation Groundspeed Altitude Reporting Facility
EDT Latitude Longitude Course Direction KTS MPH feet Rate Location/Type
07:53PM 39.3167 -94.7167 351° North 154 177 1,700  Level Kansas City TRACON
07:53PM 39.3433 -94.7222 351° North 165 190 2,700 2,100 Climbing Kansas City Center
07:54PM 39.3628 -94.7931 290° West 243 280 5,200 3,000 Climbing Kansas City Center
07:55PM 39.3453 -94.8894 257° West 288 331 9,000 3,360 Climbing Kansas City Center
07:56PM 39.3217 -95.0167 257° West 344 396 12,100 3,300 Climbing Kansas City Center
07:57PM 39.2967 -95.1517 257° West 370 426 15,800 3,300 Climbing Kansas City Center
07:58PM 39.2717 -95.2853 256° West 382 440 19,000 3,180 Climbing Kansas City Center
07:59PM 39.2436 -95.4308 256° West 389 448 22,400 1,980 Climbing Kansas City Center
08:00PM 39.2200 -95.5628 257° West 391 450 23,100 1,320 Climbing Kansas City Center
08:01PM 39.1953 -95.6942 256° West 395 455 25,200 2,100 Climbing Kansas City Center
08:02PM 39.1375 -95.8389 243° Southwest 413 475 27,500 1,920 Climbing Kansas City Center
08:03PM 39.0792 -95.9622 239° Southwest 421 484 29,200 1,200 Climbing Kansas City Center
08:05PM 39.0067 -96.1086 238° Southwest 432 497 30,000 360 Climbing Kansas City Center
08:06PM 38.9453 -96.2353 238° Southwest 435 501 30,000 480 Level Kansas City Center
08:07PM 38.8733 -96.3803 238° Southwest 433 498 31,000 1,680 Climbing Kansas City Center
08:08PM 38.8408 -96.4972 250° West 422 486 33,500 2,460 Climbing Kansas City Center
08:09PM 38.8100 -96.6614 256° West 400 460 36,200 2,040 Climbing Kansas City Center
08:10PM 38.7831 -96.7917 255° West 386 444 37,800 1,260 Climbing Kansas City Center
08:11PM 38.7547 -96.9228 255° West 383 441 38,900 960 Climbing Kansas City Center
08:12PM 38.7289 -97.0544 256° West 383 441 39,800 480 Climbing Kansas City Center
08:13PM 38.7011 -97.1881 255° West 389 448 40,000 60 Climbing Kansas City Center
08:14PM 38.6747 -97.3228 256° West 391 450 40,000  Level Kansas City Center
08:15PM 38.6417 -97.4847 255° West 393 452 40,000  Level Kansas City Center
08:16PM 38.6142 -97.6192 255° West 392 451 40,000  Level Kansas City Center
08:17PM 38.5864 -97.7531 255° West 391 450 40,000  Level Kansas City Center
08:18PM 38.5592 -97.8850 255° West 386 444 40,000  Level Kansas City Center
08:19PM 38.5306 -98.0183 255° West 390 449 40,000  Level Kansas City Center
08:20PM 38.5025 -98.1497 255° West 386 444 40,000  Level Kansas City Center
08:21PM 38.4706 -98.3042 255° West 378 435 40,000  Level Kansas City Center
08:22PM 38.4422 -98.4344 255° West 382 440 40,000  Level Kansas City Center
08:23PM 38.4142 -98.5644 255° West 382 440 40,000  Level Kansas City Center
08:24PM 38.3844 -98.6950 254° West 386 444 40,000  Level Kansas City Center
08:25PM 38.3569 -98.8247 255° West 381 438 40,000  Level Kansas City Center
08:26PM 38.3297 -98.9542 255° West 380 437 40,000  Level Kansas City Center
08:27PM 38.3006 -99.0858 254° West 384 442 40,000  Level Kansas City Center
08:28PM 38.2653 -99.2425 254° West 385 443 40,000  Level Kansas City Center
08:29PM 38.2356 -99.3719 254° West 383 441 40,000  Level Kansas City Center
08:30PM 38.2033 -99.5100 253° West 381 438 40,000  Level Kansas City Center
08:31PM 38.1767 -99.6328 255° West 378 435 40,000  Level Kansas City Center
08:32PM 38.1431 -99.7764 253° West 380 437 40,000  Level Kansas City Center
08:33PM 38.1144 -99.8986 253° West 378 435 40,000  Level Kansas City Center
08:34PM 38.0864 -100.0219 254° West 379 436 40,000  Level Kansas City Center
08:35PM 38.0522 -100.1642 253° West 379 436 40,000  Level Kansas City Center
08:36PM 38.0239 -100.2864 254° West 377 434 40,000  Level Kansas City Center
08:37PM 37.9914 -100.4289 254° West 378 435 40,000  Level Kansas City Center
08:38PM 37.9617 -100.5492 253° West 377 434 40,000  Level Kansas City Center
08:39PM 37.9286 -100.6900 253° West 375 432 40,000  Level Kansas City Center
08:41PM 37.8947 -100.8081 250° West 375 432 40,000  Level Kansas City Center
08:42PM 37.8503 -100.9436 247° West 378 435 40,000  Level Kansas City Center
08:43PM 37.8128 -101.0611 248° West 381 438 40,000  Level Kansas City Center
08:44PM 37.7669 -101.1961 247° West 379 436 40,000  Level Kansas City Center
08:45PM 37.7283 -101.3133 247° West 379 436 40,000  Level Kansas City Center
08:46PM 37.6900 -101.4303 248° West 379 436 40,000  Level Kansas City Center
08:47PM 37.6450 -101.5678 248° West 380 437 40,000  Level Kansas City Center
08:48PM 37.6061 -101.6861 248° West 381 438 40,000  Level Kansas City Center
08:49PM 37.5592 -101.8228 247° West 381 438 40,000  Level Kansas City Center
08:50PM 37.5200 -101.9408 247° West 382 440 40,000  Level Kansas City Center
08:51PM 37.4742 -102.0800 247° West 385 443 40,000  Level Kansas City Center
08:52PM 37.4347 -102.1986 247° West 384 442 40,000  Level Kansas City Center
08:53PM 37.3939 -102.3158 246° West 383 441 40,000  Level Kansas City Center
08:54PM 37.3553 -102.4364 248° West 383 441 40,000  Level Albuquerque Center
08:55PM 37.3075 -102.5739 246° West 384 442 40,000  Level Albuquerque Center
08:56PM 37.2681 -102.6908 247° West 380 437 40,000  Level Albuquerque Center
08:57PM 37.2186 -102.8278 246° West 385 443 40,000  Level Albuquerque Center
08:58PM 37.1806 -102.9447 248° West 380 437 40,000  Level Albuquerque Center
08:59PM 37.1314 -103.0547 241° Southwest 378 435 40,000  Level Albuquerque Center
09:00PM 37.0706 -103.1831 239° Southwest 381 438 40,000  Level Albuquerque Center
09:01PM 37.0183 -103.2906 239° Southwest 378 435 40,000  Level Albuquerque Center
09:02PM 36.9575 -103.4169 239° Southwest 378 435 40,000  Level Albuquerque Center
09:03PM 36.9069 -103.5250 240° Southwest 376 433 40,000  Level Albuquerque Center
09:04PM 36.8575 -103.6342 241° Southwest 376 433 40,000  Level Albuquerque Center
09:05PM 36.8014 -103.7586 241° Southwest 371 427 40,000  Level Albuquerque Center
09:06PM 36.7539 -103.8669 241° Southwest 369 425 40,000  Level Albuquerque Center
09:07PM 36.7072 -103.9761 242° Southwest 371 427 40,000  Level Albuquerque Center
09:08PM 36.6494 -104.1067 241° Southwest 374 430 40,000  Level Albuquerque Center
09:09PM 36.5981 -104.2231 241° Southwest 379 436 40,000  Level Albuquerque Center
09:10PM 36.5486 -104.3394 242° Southwest 379 436 40,000  Level Albuquerque Center
09:11PM 36.4975 -104.4561 241° Southwest 381 438 40,000  Level Albuquerque Center
09:12PM 36.4458 -104.5711 241° Southwest 380 437 40,000  Level Albuquerque Center
09:13PM 36.3961 -104.6878 242° Southwest 380 437 40,000  Level Albuquerque Center
09:14PM 36.3447 -104.8056 242° Southwest 383 441 40,000  Level Albuquerque Center
09:15PM 36.3092 -104.9311 251° West 384 442 40,000  Level Albuquerque Center
09:16PM 36.2725 -105.0572 250° West 384 442 40,000  Level Albuquerque Center
09:17PM 36.2292 -105.2056 250° West 389 448 40,000  Level Albuquerque Center
09:18PM 36.1892 -105.3328 249° West 392 451 40,000  Level Albuquerque Center
09:19PM 36.1531 -105.4575 250° West 386 444 40,000  Level Albuquerque Center
09:20PM 36.1183 -105.5700 249° West 383 441 40,000  Level Albuquerque Center
09:21PM 36.0819 -105.6928 250° West 382 440 40,000  Level Albuquerque Center
09:22PM 36.0447 -105.8167 250° West 384 442 40,000  Level Albuquerque Center
09:23PM 35.9997 -105.9658 250° West 387 445 40,000  Level Albuquerque Center
09:25PM 35.9617 -106.0892 249° West 388 447 40,000  Level Albuquerque Center
09:26PM 35.9242 -106.2128 249° West 389 448 40,000  Level Albuquerque Center
09:27PM 35.8811 -106.3419 248° West 382 440 40,000  Level Albuquerque Center
09:28PM 35.8428 -106.4628 249° West 380 437 40,000  Level Albuquerque Center
09:29PM 35.8081 -106.5769 249° West 378 435 40,000  Level Albuquerque Center
09:30PM 35.7664 -106.7103 249° West 374 430 40,000  Level Albuquerque Center
09:31PM 35.7308 -106.8247 249° West 375 432 40,000  Level Albuquerque Center
09:32PM 35.6875 -106.9606 249° West 379 436 40,000  Level Albuquerque Center
09:33PM 35.6506 -107.0753 248° West 378 435 40,000  Level Albuquerque Center
09:34PM 35.6156 -107.1867 249° West 368 423 40,000  Level Albuquerque Center
09:35PM 35.5742 -107.3217 249° West 375 432 40,000  Level Albuquerque Center
09:36PM 35.5361 -107.4350 248° West 375 432 40,000  Level Albuquerque Center
09:37PM 35.5003 -107.5497 249° West 376 433 40,000  Level Albuquerque Center
09:38PM 35.4556 -107.6822 248° West 376 433 40,000  Level Albuquerque Center
09:39PM 35.4175 -107.7969 248° West 378 435 40,000  Level Albuquerque Center
09:40PM 35.3719 -107.9317 248° West 379 436 40,000  Level Albuquerque Center
09:41PM 35.3339 -108.0481 248° West 382 440 40,000  Level Albuquerque Center
09:42PM 35.2953 -108.1614 247° West 379 436 40,000  Level Albuquerque Center
09:43PM 35.2508 -108.2956 248° West 379 436 40,000  Level Albuquerque Center
09:44PM 35.2117 -108.4097 247° West 379 436 40,000  Level Albuquerque Center
09:45PM 35.1731 -108.5231 247° West 377 434 40,000  Level Albuquerque Center
09:46PM 35.1283 -108.6550 248° West 376 433 40,000  Level Albuquerque Center
09:47PM 35.0894 -108.7694 247° West 377 434 40,000  Level Albuquerque Center
09:48PM 35.0428 -108.9028 247° West 380 437 40,000 -240 Level Albuquerque Center
09:49PM 35.0028 -109.0161 247° West 378 435 39,600 -660 Descending Albuquerque Center
09:50PM 34.9639 -109.1306 248° West 380 437 38,700 -1,020 Descending Albuquerque Center
09:51PM 34.9169 -109.2636 247° West 381 438 37,600 -1,080 Descending Albuquerque Center
09:52PM 34.8781 -109.3764 247° West 380 437 36,600 -840 Descending Albuquerque Center
09:53PM 34.8372 -109.4919 247° West 383 441 36,000 -300 Descending Albuquerque Center
09:54PM 34.7903 -109.6275 247° West 387 445 36,000  Level Albuquerque Center
09:55PM 34.7494 -109.7419 247° West 386 444 36,000  Level Albuquerque Center
09:56PM 34.7019 -109.8747 247° West 384 442 36,000  Level Albuquerque Center
09:57PM 34.6594 -109.9881 246° West 384 442 36,000  Level Albuquerque Center
09:58PM 34.6178 -110.1056 247° West 391 450 36,000  Level Albuquerque Center
09:59PM 34.5694 -110.2442 247° West 398 458 36,000 -780 Level Albuquerque Center
10:00PM 34.5228 -110.3528 242° Southwest 384 442 34,500 -1,560 Descending Albuquerque Center
10:01PM 34.4853 -110.4625 248° West 393 452 32,900 -2,160 Descending Albuquerque Center
10:02PM 34.4314 -110.6075 246° West 395 455 30,200 -2,460 Descending Albuquerque Center
10:03PM 34.3878 -110.7211 245° Southwest 379 436 28,000 -2,160 Descending Albuquerque Center
10:04PM 34.3344 -110.8264 238° Southwest 371 427 25,900 -2,160 Descending Albuquerque Center
10:05PM 34.2619 -110.9169 226° Southwest 371 427 23,700 -2,160 Descending Albuquerque Center
10:06PM 34.1922 -111.0050 226° Southwest 367 422 21,600 -2,100 Descending Albuquerque Center
10:07PM 34.1256 -111.0906 227° Southwest 355 409 19,500 -2,220 Descending Albuquerque Center
10:08PM 34.0622 -111.1739 227° Southwest 343 395 17,100 -2,220 Descending Albuquerque Center
10:09PM 33.9981 -111.2556 227° Southwest 337 388 15,100 -1,980 Descending Albuquerque Center
10:10PM 33.9369 -111.3336 227° Southwest 324 373 13,100 -1,500 Descending Albuquerque Center
10:11PM 33.8769 -111.4089 226° Southwest 311 358 12,100 -1,140 Descending Albuquerque Center
10:12PM 33.8114 -111.4650 215° Southwest 289 333 10,900 -1,140 Descending Albuquerque Center
10:13PM 33.7500 -111.5192 216° Southwest 275 316 9,800 -960 Descending Albuquerque Center
10:15PM 33.6919 -111.5686 215° Southwest 258 297 9,000 -900 Descending Albuquerque Center
10:16PM 33.6250 -111.6250 215° Southwest 245 282 8,000 -900 Descending Albuquerque Center
10:17PM 33.5706 -111.6706 215° Southwest 239 275 7,200 -840 Descending Albuquerque Center
10:18PM 33.5153 -111.7181 216° Southwest 243 280 6,300 -1,080 Descending Albuquerque Center
10:19PM 33.4825 -111.7850 240° Southwest 234 269 5,100 -1,320 Descending Albuquerque Center
10:20PM 33.4542 -111.8508 243° Southwest 224 258 3,700 -1,320 Descending Albuquerque Center
10:21PM 33.4333 -111.9167 249° West 162 186 2,400 -1,020 Descending Phoenix TRACON
10:22PM 33.4333 -111.9667 270° West 129 148 1,600 -780 Descending Phoenix TRACON
10:25PM 33.4343 -112.0116 270° West  Level Estimated